SBOSBO YWG / CYWG
Speedbird OnlineSpeedbird Online YWG / CYWG

Winnipeg / James Armstrong Richardson International Airport
16:52 22.7°C

Location Winnipeg, Canada
Latitude: 49.909999847399995
Longitude: -97.2398986816
Local Time 16:52 on 29 May 2024
UTC -5 hours (America/Winnipeg)
Currency £1 equals CAD 1.74
METAR CYWG 292100Z 17017G27KT 15SM FEW060 FEW300 23/08 A3004 RMK CU1CI1 CU TR CONTRAILS SLP177 DENSITY ALT 1800FT
TAF TAF CYWG 291740Z 2918/3018 18015G25KT P6SM FEW040 FM300800 17020G30KT P6SM BKN250 FM301400 18020G30KT P6SM BKN080 TEMPO 3014/3018 P6SM -SHRA OVC070 RMK NXT FCST BY 300000Z
Weather As Of 29 May 2024 16:52
Description Few clouds
Wind 32 km/h from South (170°)
Cloud Cover 20%
Precipitation Rain: none, Snow: none
Sunrise 05:27
Sunset 21:25
Web Airport Website | Wikipedia
Codes IATA: YWG
ICAO: CYWG
Altitude 239 Meter / 783 Feet
Distance 6,317 KM / 3,925 Miles
from London.
Runways
RunwayLength (m)Surface
071372Asphalt
132652Asphalt
183353Asphalt
251372Asphalt
312652Asphalt
363353Asphalt
Radio
TypeDescriptionFrequency
ARRARR119.5
ATISATIS120.2
CLDCLNC DEL121.3
DEPDEP119.9
GNDGND121.9
MILMilitary operations131.4
MILMilitary operations308.8
PMSVPMSV34.46
TWRTWR118.3
TWRWinnipeg tower - secondary (V)125.4
VFR ADVWinnipeg advisory121
Live ATC



Support Speedbird Online

© 2017-2024 Speedbird Online